sensor_id;sensor_type;location;lat;lon;timestamp;P1;durP1;ratioP1;P2;durP2;ratioP2
8058;SDS011;4072;42.668;23.396;2023-07-28T00:00:19;4.70;;;4.30;;
8058;SDS011;4072;42.668;23.396;2023-07-28T00:02:48;5.43;;;5.03;;
8058;SDS011;4072;42.668;23.396;2023-07-28T00:05:18;4.80;;;4.40;;
8058;SDS011;4072;42.668;23.396;2023-07-28T00:07:48;5.20;;;4.80;;
8058;SDS011;4072;42.668;23.396;2023-07-28T00:10:17;4.63;;;4.33;;
8058;SDS011;4072;42.668;23.396;2023-07-28T00:12:45;5.20;;;4.87;;
8058;SDS011;4072;42.668;23.396;2023-07-28T00:15:14;5.33;;;4.93;;
8058;SDS011;4072;42.668;23.396;2023-07-28T00:17:46;5.63;;;5.13;;
8058;SDS011;4072;42.668;23.396;2023-07-28T00:20:17;5.43;;;4.80;;
8058;SDS011;4072;42.668;23.396;2023-07-28T00:22:47;5.03;;;4.50;;
8058;SDS011;4072;42.668;23.396;2023-07-28T00:25:19;4.40;;;4.00;;
8058;SDS011;4072;42.668;23.396;2023-07-28T00:27:48;4.43;;;3.90;;
8058;SDS011;4072;42.668;23.396;2023-07-28T00:30:16;7.90;;;4.23;;
8058;SDS011;4072;42.668;23.396;2023-07-28T00:32:45;3.40;;;3.20;;
8058;SDS011;4072;42.668;23.396;2023-07-28T00:35:13;4.10;;;3.80;;
8058;SDS011;4072;42.668;23.396;2023-07-28T00:37:41;7.77;;;7.07;;
8058;SDS011;4072;42.668;23.396;2023-07-28T00:40:11;10.13;;;8.17;;
8058;SDS011;4072;42.668;23.396;2023-07-28T00:42:40;6.23;;;5.63;;
8058;SDS011;4072;42.668;23.396;2023-07-28T00:45:09;7.10;;;6.40;;
8058;SDS011;4072;42.668;23.396;2023-07-28T00:47:37;6.57;;;6.00;;
8058;SDS011;4072;42.668;23.396;2023-07-28T00:50:06;8.00;;;7.20;;
8058;SDS011;4072;42.668;23.396;2023-07-28T00:52:37;5.80;;;5.40;;
8058;SDS011;4072;42.668;23.396;2023-07-28T00:55:07;4.70;;;4.30;;
8058;SDS011;4072;42.668;23.396;2023-07-28T00:57:37;3.63;;;3.33;;
8058;SDS011;4072;42.668;23.396;2023-07-28T01:00:06;3.70;;;3.40;;
8058;SDS011;4072;42.668;23.396;2023-07-28T01:02:35;4.07;;;3.77;;
8058;SDS011;4072;42.668;23.396;2023-07-28T01:05:04;3.97;;;3.70;;
8058;SDS011;4072;42.668;23.396;2023-07-28T01:07:35;4.43;;;3.97;;
8058;SDS011;4072;42.668;23.396;2023-07-28T01:10:06;4.93;;;4.23;;
8058;SDS011;4072;42.668;23.396;2023-07-28T01:12:40;8.03;;;5.00;;
8058;SDS011;4072;42.668;23.396;2023-07-28T01:15:10;5.40;;;4.73;;
8058;SDS011;4072;42.668;23.396;2023-07-28T01:17:38;3.40;;;3.10;;
8058;SDS011;4072;42.668;23.396;2023-07-28T01:20:06;3.10;;;2.90;;
8058;SDS011;4072;42.668;23.396;2023-07-28T01:22:44;3.33;;;3.13;;
8058;SDS011;4072;42.668;23.396;2023-07-28T01:25:18;3.53;;;3.23;;
8058;SDS011;4072;42.668;23.396;2023-07-28T01:27:57;3.53;;;3.17;;
8058;SDS011;4072;42.668;23.396;2023-07-28T01:30:28;3.30;;;3.10;;
8058;SDS011;4072;42.668;23.396;2023-07-28T01:32:57;5.00;;;3.27;;
8058;SDS011;4072;42.668;23.396;2023-07-28T01:35:27;3.57;;;3.30;;
8058;SDS011;4072;42.668;23.396;2023-07-28T01:37:55;3.90;;;3.60;;
8058;SDS011;4072;42.668;23.396;2023-07-28T01:40:23;3.80;;;3.50;;
8058;SDS011;4072;42.668;23.396;2023-07-28T01:42:52;3.77;;;3.37;;
8058;SDS011;4072;42.668;23.396;2023-07-28T01:45:21;3.90;;;3.60;;
8058;SDS011;4072;42.668;23.396;2023-07-28T01:47:50;3.70;;;3.47;;
8058;SDS011;4072;42.668;23.396;2023-07-28T01:50:18;3.43;;;3.23;;
8058;SDS011;4072;42.668;23.396;2023-07-28T01:52:46;3.57;;;3.37;;
8058;SDS011;4072;42.668;23.396;2023-07-28T01:55:14;4.10;;;3.80;;
8058;SDS011;4072;42.668;23.396;2023-07-28T01:57:50;4.20;;;3.90;;
8058;SDS011;4072;42.668;23.396;2023-07-28T02:00:21;3.77;;;3.57;;
8058;SDS011;4072;42.668;23.396;2023-07-28T02:02:50;3.53;;;3.33;;
8058;SDS011;4072;42.668;23.396;2023-07-28T02:05:19;3.90;;;3.60;;
8058;SDS011;4072;42.668;23.396;2023-07-28T02:07:47;3.87;;;3.57;;
8058;SDS011;4072;42.668;23.396;2023-07-28T02:10:16;3.60;;;3.30;;
8058;SDS011;4072;42.668;23.396;2023-07-28T02:12:45;3.97;;;3.53;;
8058;SDS011;4072;42.668;23.396;2023-07-28T02:15:14;3.90;;;3.60;;
8058;SDS011;4072;42.668;23.396;2023-07-28T02:17:43;4.20;;;3.90;;
8058;SDS011;4072;42.668;23.396;2023-07-28T02:20:11;4.03;;;3.63;;
8058;SDS011;4072;42.668;23.396;2023-07-28T02:22:42;3.93;;;3.63;;
8058;SDS011;4072;42.668;23.396;2023-07-28T02:25:10;3.63;;;3.37;;
8058;SDS011;4072;42.668;23.396;2023-07-28T02:27:40;4.20;;;3.60;;
8058;SDS011;4072;42.668;23.396;2023-07-28T02:30:08;3.80;;;3.50;;
8058;SDS011;4072;42.668;23.396;2023-07-28T02:32:37;4.40;;;4.00;;
8058;SDS011;4072;42.668;23.396;2023-07-28T02:35:10;10.00;;;4.13;;
8058;SDS011;4072;42.668;23.396;2023-07-28T02:37:39;3.87;;;3.67;;
8058;SDS011;4072;42.668;23.396;2023-07-28T02:40:09;4.33;;;4.03;;
8058;SDS011;4072;42.668;23.396;2023-07-28T02:42:38;4.07;;;3.67;;
8058;SDS011;4072;42.668;23.396;2023-07-28T02:45:09;4.50;;;4.20;;
8058;SDS011;4072;42.668;23.396;2023-07-28T02:47:38;3.53;;;3.23;;
8058;SDS011;4072;42.668;23.396;2023-07-28T02:50:06;3.80;;;3.40;;
8058;SDS011;4072;42.668;23.396;2023-07-28T02:52:36;2.90;;;2.70;;
8058;SDS011;4072;42.668;23.396;2023-07-28T02:55:04;3.30;;;3.10;;
8058;SDS011;4072;42.668;23.396;2023-07-28T02:57:33;3.33;;;3.03;;
8058;SDS011;4072;42.668;23.396;2023-07-28T03:00:01;3.80;;;3.50;;
8058;SDS011;4072;42.668;23.396;2023-07-28T03:02:32;3.17;;;2.90;;
8058;SDS011;4072;42.668;23.396;2023-07-28T03:05:00;3.23;;;3.03;;
8058;SDS011;4072;42.668;23.396;2023-07-28T03:07:28;3.50;;;3.20;;
8058;SDS011;4072;42.668;23.396;2023-07-28T03:09:58;4.33;;;3.60;;
8058;SDS011;4072;42.668;23.396;2023-07-28T03:12:26;3.50;;;2.87;;
8058;SDS011;4072;42.668;23.396;2023-07-28T03:14:58;3.30;;;2.93;;
8058;SDS011;4072;42.668;23.396;2023-07-28T03:17:26;3.23;;;2.90;;
8058;SDS011;4072;42.668;23.396;2023-07-28T03:19:54;3.43;;;3.13;;
8058;SDS011;4072;42.668;23.396;2023-07-28T03:22:26;2.80;;;2.60;;
8058;SDS011;4072;42.668;23.396;2023-07-28T03:24:54;4.13;;;3.70;;
8058;SDS011;4072;42.668;23.396;2023-07-28T03:27:24;3.40;;;3.10;;
8058;SDS011;4072;42.668;23.396;2023-07-28T03:29:52;3.23;;;3.03;;
8058;SDS011;4072;42.668;23.396;2023-07-28T03:32:20;2.70;;;2.50;;
8058;SDS011;4072;42.668;23.396;2023-07-28T03:34:48;3.13;;;2.93;;
8058;SDS011;4072;42.668;23.396;2023-07-28T03:37:17;3.33;;;3.10;;
8058;SDS011;4072;42.668;23.396;2023-07-28T03:39:45;3.23;;;3.03;;
8058;SDS011;4072;42.668;23.396;2023-07-28T03:42:14;3.97;;;3.10;;
8058;SDS011;4072;42.668;23.396;2023-07-28T03:44:44;3.53;;;3.33;;
8058;SDS011;4072;42.668;23.396;2023-07-28T03:47:12;4.47;;;3.47;;
8058;SDS011;4072;42.668;23.396;2023-07-28T03:49:41;3.70;;;3.40;;
8058;SDS011;4072;42.668;23.396;2023-07-28T03:52:10;3.67;;;3.37;;
8058;SDS011;4072;42.668;23.396;2023-07-28T03:54:39;3.93;;;3.63;;
8058;SDS011;4072;42.668;23.396;2023-07-28T03:57:08;4.57;;;3.47;;
8058;SDS011;4072;42.668;23.396;2023-07-28T03:59:37;7.27;;;6.57;;
8058;SDS011;4072;42.668;23.396;2023-07-28T04:02:07;10.97;;;9.23;;
8058;SDS011;4072;42.668;23.396;2023-07-28T04:04:36;12.50;;;9.67;;
8058;SDS011;4072;42.668;23.396;2023-07-28T04:07:05;15.27;;;8.93;;
8058;SDS011;4072;42.668;23.396;2023-07-28T04:09:33;14.30;;;8.37;;
8058;SDS011;4072;42.668;23.396;2023-07-28T04:12:01;9.47;;;8.30;;
8058;SDS011;4072;42.668;23.396;2023-07-28T04:14:29;11.03;;;7.97;;
8058;SDS011;4072;42.668;23.396;2023-07-28T04:16:57;8.10;;;7.20;;
8058;SDS011;4072;42.668;23.396;2023-07-28T04:19:28;12.50;;;8.70;;
8058;SDS011;4072;42.668;23.396;2023-07-28T04:21:56;8.50;;;7.70;;
8058;SDS011;4072;42.668;23.396;2023-07-28T04:24:25;10.80;;;8.50;;
8058;SDS011;4072;42.668;23.396;2023-07-28T04:26:53;8.53;;;7.73;;
8058;SDS011;4072;42.668;23.396;2023-07-28T04:29:21;9.30;;;7.97;;
8058;SDS011;4072;42.668;23.396;2023-07-28T04:31:50;8.87;;;7.90;;
8058;SDS011;4072;42.668;23.396;2023-07-28T04:34:19;8.30;;;7.43;;
8058;SDS011;4072;42.668;23.396;2023-07-28T04:36:51;9.17;;;7.60;;
8058;SDS011;4072;42.668;23.396;2023-07-28T04:39:20;6.97;;;6.27;;
8058;SDS011;4072;42.668;23.396;2023-07-28T04:41:51;8.30;;;7.13;;
8058;SDS011;4072;42.668;23.396;2023-07-28T04:44:19;7.80;;;7.10;;
8058;SDS011;4072;42.668;23.396;2023-07-28T04:46:47;7.90;;;7.13;;
8058;SDS011;4072;42.668;23.396;2023-07-28T04:49:15;7.37;;;6.67;;
8058;SDS011;4072;42.668;23.396;2023-07-28T04:51:45;8.20;;;6.87;;
8058;SDS011;4072;42.668;23.396;2023-07-28T04:54:15;7.60;;;6.83;;
8058;SDS011;4072;42.668;23.396;2023-07-28T04:56:43;7.47;;;6.77;;
8058;SDS011;4072;42.668;23.396;2023-07-28T04:59:12;7.93;;;7.10;;
8058;SDS011;4072;42.668;23.396;2023-07-28T05:01:40;11.27;;;6.80;;
8058;SDS011;4072;42.668;23.396;2023-07-28T05:04:08;7.77;;;5.87;;
8058;SDS011;4072;42.668;23.396;2023-07-28T05:06:37;6.13;;;5.53;;
8058;SDS011;4072;42.668;23.396;2023-07-28T05:09:05;5.93;;;5.07;;
8058;SDS011;4072;42.668;23.396;2023-07-28T05:11:34;5.63;;;4.90;;
8058;SDS011;4072;42.668;23.396;2023-07-28T05:14:03;5.70;;;5.10;;
8058;SDS011;4072;42.668;23.396;2023-07-28T05:16:32;6.50;;;5.90;;
8058;SDS011;4072;42.668;23.396;2023-07-28T05:19:01;6.37;;;5.70;;
8058;SDS011;4072;42.668;23.396;2023-07-28T05:21:29;6.20;;;5.50;;
8058;SDS011;4072;42.668;23.396;2023-07-28T05:23:59;7.00;;;5.13;;
8058;SDS011;4072;42.668;23.396;2023-07-28T05:26:28;5.97;;;5.30;;
8058;SDS011;4072;42.668;23.396;2023-07-28T05:28:58;5.57;;;5.07;;
8058;SDS011;4072;42.668;23.396;2023-07-28T05:31:26;5.93;;;5.10;;
8058;SDS011;4072;42.668;23.396;2023-07-28T05:33:55;5.83;;;5.00;;
8058;SDS011;4072;42.668;23.396;2023-07-28T05:36:23;9.20;;;6.97;;
8058;SDS011;4072;42.668;23.396;2023-07-28T05:38:51;10.00;;;7.47;;
8058;SDS011;4072;42.668;23.396;2023-07-28T05:41:20;5.27;;;4.77;;
8058;SDS011;4072;42.668;23.396;2023-07-28T05:43:48;8.73;;;5.40;;
8058;SDS011;4072;42.668;23.396;2023-07-28T05:46:19;6.40;;;5.70;;
8058;SDS011;4072;42.668;23.396;2023-07-28T05:48:47;6.67;;;5.80;;
8058;SDS011;4072;42.668;23.396;2023-07-28T05:51:15;8.80;;;5.57;;
8058;SDS011;4072;42.668;23.396;2023-07-28T05:53:43;7.27;;;5.40;;
8058;SDS011;4072;42.668;23.396;2023-07-28T05:56:12;7.03;;;5.53;;
8058;SDS011;4072;42.668;23.396;2023-07-28T05:58:40;6.70;;;5.50;;
8058;SDS011;4072;42.668;23.396;2023-07-28T06:01:11;6.80;;;5.83;;
8058;SDS011;4072;42.668;23.396;2023-07-28T06:03:42;5.77;;;5.27;;
8058;SDS011;4072;42.668;23.396;2023-07-28T06:06:16;7.03;;;6.33;;
8058;SDS011;4072;42.668;23.396;2023-07-28T06:08:48;7.17;;;5.70;;
8058;SDS011;4072;42.668;23.396;2023-07-28T06:11:16;11.30;;;6.33;;
8058;SDS011;4072;42.668;23.396;2023-07-28T06:13:44;7.13;;;5.00;;
8058;SDS011;4072;42.668;23.396;2023-07-28T06:16:14;5.80;;;5.17;;
8058;SDS011;4072;42.668;23.396;2023-07-28T06:18:44;7.30;;;4.53;;
8058;SDS011;4072;42.668;23.396;2023-07-28T06:21:12;10.40;;;5.03;;
8058;SDS011;4072;42.668;23.396;2023-07-28T06:23:40;7.87;;;4.97;;
8058;SDS011;4072;42.668;23.396;2023-07-28T06:26:09;7.17;;;4.80;;
8058;SDS011;4072;42.668;23.396;2023-07-28T06:28:37;8.40;;;5.17;;
8058;SDS011;4072;42.668;23.396;2023-07-28T06:31:05;5.27;;;4.37;;
8058;SDS011;4072;42.668;23.396;2023-07-28T06:33:33;5.27;;;3.80;;
8058;SDS011;4072;42.668;23.396;2023-07-28T06:36:05;4.23;;;3.50;;
8058;SDS011;4072;42.668;23.396;2023-07-28T06:38:33;7.97;;;3.67;;
8058;SDS011;4072;42.668;23.396;2023-07-28T06:41:01;4.07;;;3.60;;
8058;SDS011;4072;42.668;23.396;2023-07-28T06:43:29;4.20;;;3.33;;
8058;SDS011;4072;42.668;23.396;2023-07-28T06:45:58;4.73;;;3.40;;
8058;SDS011;4072;42.668;23.396;2023-07-28T06:48:26;4.90;;;4.50;;
8058;SDS011;4072;42.668;23.396;2023-07-28T06:50:54;4.67;;;3.87;;
8058;SDS011;4072;42.668;23.396;2023-07-28T06:53:24;3.30;;;3.00;;
8058;SDS011;4072;42.668;23.396;2023-07-28T06:55:52;5.20;;;3.33;;
8058;SDS011;4072;42.668;23.396;2023-07-28T06:58:20;4.10;;;3.63;;
8058;SDS011;4072;42.668;23.396;2023-07-28T07:00:50;3.20;;;2.97;;
8058;SDS011;4072;42.668;23.396;2023-07-28T07:03:18;5.43;;;4.30;;
8058;SDS011;4072;42.668;23.396;2023-07-28T07:05:46;3.40;;;3.10;;
8058;SDS011;4072;42.668;23.396;2023-07-28T07:08:15;3.23;;;2.97;;
8058;SDS011;4072;42.668;23.396;2023-07-28T07:10:48;3.80;;;3.43;;
8058;SDS011;4072;42.668;23.396;2023-07-28T07:13:17;4.40;;;2.90;;
8058;SDS011;4072;42.668;23.396;2023-07-28T07:15:45;3.43;;;2.97;;
8058;SDS011;4072;42.668;23.396;2023-07-28T07:18:14;2.97;;;2.77;;
8058;SDS011;4072;42.668;23.396;2023-07-28T07:20:43;2.77;;;2.57;;
8058;SDS011;4072;42.668;23.396;2023-07-28T07:23:11;4.83;;;3.07;;
8058;SDS011;4072;42.668;23.396;2023-07-28T07:25:39;3.50;;;3.17;;
8058;SDS011;4072;42.668;23.396;2023-07-28T07:28:12;3.67;;;3.37;;
8058;SDS011;4072;42.668;23.396;2023-07-28T07:30:40;2.93;;;2.60;;
8058;SDS011;4072;42.668;23.396;2023-07-28T07:33:09;3.47;;;2.77;;
8058;SDS011;4072;42.668;23.396;2023-07-28T07:35:37;4.15;;;2.85;;
8058;SDS011;4072;42.668;23.396;2023-07-28T07:38:09;3.03;;;2.70;;
8058;SDS011;4072;42.668;23.396;2023-07-28T07:40:38;4.72;;;3.05;;
8058;SDS011;4072;42.668;23.396;2023-07-28T07:43:06;3.72;;;3.10;;
8058;SDS011;4072;42.668;23.396;2023-07-28T07:45:36;4.22;;;2.45;;
8058;SDS011;4072;42.668;23.396;2023-07-28T07:48:05;2.92;;;2.67;;
8058;SDS011;4072;42.668;23.396;2023-07-28T07:50:35;2.42;;;2.10;;
8058;SDS011;4072;42.668;23.396;2023-07-28T07:53:04;3.63;;;2.38;;
8058;SDS011;4072;42.668;23.396;2023-07-28T07:55:33;3.00;;;2.70;;
8058;SDS011;4072;42.668;23.396;2023-07-28T07:58:01;2.15;;;1.95;;
8058;SDS011;4072;42.668;23.396;2023-07-28T08:00:30;2.42;;;2.22;;
8058;SDS011;4072;42.668;23.396;2023-07-28T08:03:01;4.55;;;3.97;;
8058;SDS011;4072;42.668;23.396;2023-07-28T08:05:30;3.95;;;2.65;;
8058;SDS011;4072;42.668;23.396;2023-07-28T08:07:58;2.33;;;2.15;;
8058;SDS011;4072;42.668;23.396;2023-07-28T08:10:27;6.55;;;2.50;;
8058;SDS011;4072;42.668;23.396;2023-07-28T08:12:55;3.10;;;2.63;;
8058;SDS011;4072;42.668;23.396;2023-07-28T08:15:23;3.05;;;2.75;;
8058;SDS011;4072;42.668;23.396;2023-07-28T08:17:51;2.83;;;2.50;;
8058;SDS011;4072;42.668;23.396;2023-07-28T08:20:21;2.33;;;2.20;;
8058;SDS011;4072;42.668;23.396;2023-07-28T08:22:49;4.00;;;2.92;;
8058;SDS011;4072;42.668;23.396;2023-07-28T08:25:17;2.70;;;2.50;;
8058;SDS011;4072;42.668;23.396;2023-07-28T08:27:46;2.47;;;2.28;;
8058;SDS011;4072;42.668;23.396;2023-07-28T08:30:14;2.65;;;2.53;;
8058;SDS011;4072;42.668;23.396;2023-07-28T08:32:42;3.13;;;2.40;;
8058;SDS011;4072;42.668;23.396;2023-07-28T08:35:12;4.07;;;2.20;;
8058;SDS011;4072;42.668;23.396;2023-07-28T08:37:42;5.00;;;2.63;;
8058;SDS011;4072;42.668;23.396;2023-07-28T08:40:11;4.18;;;3.08;;
8058;SDS011;4072;42.668;23.396;2023-07-28T08:42:41;4.95;;;2.90;;
8058;SDS011;4072;42.668;23.396;2023-07-28T08:45:09;2.90;;;2.70;;
8058;SDS011;4072;42.668;23.396;2023-07-28T08:47:37;2.70;;;2.45;;
8058;SDS011;4072;42.668;23.396;2023-07-28T08:50:06;3.63;;;2.13;;
8058;SDS011;4072;42.668;23.396;2023-07-28T08:52:36;2.80;;;2.60;;
8058;SDS011;4072;42.668;23.396;2023-07-28T08:55:07;4.78;;;2.92;;
8058;SDS011;4072;42.668;23.396;2023-07-28T08:57:36;3.65;;;2.80;;
8058;SDS011;4072;42.668;23.396;2023-07-28T09:00:08;3.40;;;2.42;;
8058;SDS011;4072;42.668;23.396;2023-07-28T09:02:43;3.55;;;2.75;;
8058;SDS011;4072;42.668;23.396;2023-07-28T09:05:16;4.63;;;2.90;;
8058;SDS011;4072;42.668;23.396;2023-07-28T09:07:47;4.55;;;2.28;;
8058;SDS011;4072;42.668;23.396;2023-07-28T09:10:19;3.30;;;2.50;;
8058;SDS011;4072;42.668;23.396;2023-07-28T09:12:48;7.35;;;2.92;;
8058;SDS011;4072;42.668;23.396;2023-07-28T09:15:16;3.27;;;2.60;;
8058;SDS011;4072;42.668;23.396;2023-07-28T09:17:45;2.67;;;2.17;;
8058;SDS011;4072;42.668;23.396;2023-07-28T09:20:15;3.83;;;2.42;;
8058;SDS011;4072;42.668;23.396;2023-07-28T09:22:44;3.03;;;2.70;;
8058;SDS011;4072;42.668;23.396;2023-07-28T09:25:15;3.63;;;2.60;;
8058;SDS011;4072;42.668;23.396;2023-07-28T09:30:43;4.20;;;2.20;;
8058;SDS011;4072;42.668;23.396;2023-07-28T09:33:13;4.03;;;2.88;;
8058;SDS011;4072;42.668;23.396;2023-07-28T09:35:56;2.63;;;2.42;;
8058;SDS011;4072;42.668;23.396;2023-07-28T09:38:25;2.80;;;2.38;;
8058;SDS011;4072;42.668;23.396;2023-07-28T09:40:56;6.00;;;2.25;;
8058;SDS011;4072;42.668;23.396;2023-07-28T09:43:27;2.65;;;2.42;;
8058;SDS011;4072;42.668;23.396;2023-07-28T09:45:57;4.15;;;2.30;;
8058;SDS011;4072;42.668;23.396;2023-07-28T09:48:26;3.35;;;2.75;;
8058;SDS011;4072;42.668;23.396;2023-07-28T09:50:59;4.85;;;3.03;;
8058;SDS011;4072;42.668;23.396;2023-07-28T09:53:38;3.17;;;2.90;;
8058;SDS011;4072;42.668;23.396;2023-07-28T09:56:13;2.72;;;2.45;;
8058;SDS011;4072;42.668;23.396;2023-07-28T09:58:46;3.38;;;2.92;;
8058;SDS011;4072;42.668;23.396;2023-07-28T10:01:19;2.30;;;2.20;;
8058;SDS011;4072;42.668;23.396;2023-07-28T10:03:48;4.00;;;2.65;;
8058;SDS011;4072;42.668;23.396;2023-07-28T10:06:17;2.50;;;2.30;;
8058;SDS011;4072;42.668;23.396;2023-07-28T10:08:46;3.20;;;2.40;;
8058;SDS011;4072;42.668;23.396;2023-07-28T10:11:16;4.88;;;2.78;;
8058;SDS011;4072;42.668;23.396;2023-07-28T10:13:50;3.90;;;3.00;;
8058;SDS011;4072;42.668;23.396;2023-07-28T10:16:19;3.00;;;2.70;;
8058;SDS011;4072;42.668;23.396;2023-07-28T10:18:58;2.83;;;2.40;;
8058;SDS011;4072;42.668;23.396;2023-07-28T10:21:27;4.88;;;2.72;;
8058;SDS011;4072;42.668;23.396;2023-07-28T10:23:58;5.13;;;2.58;;
8058;SDS011;4072;42.668;23.396;2023-07-28T10:26:36;3.00;;;2.60;;
8058;SDS011;4072;42.668;23.396;2023-07-28T10:29:10;4.40;;;2.88;;
8058;SDS011;4072;42.668;23.396;2023-07-28T10:31:49;4.07;;;2.80;;
8058;SDS011;4072;42.668;23.396;2023-07-28T10:34:19;2.80;;;2.60;;
8058;SDS011;4072;42.668;23.396;2023-07-28T10:36:56;4.88;;;2.90;;
8058;SDS011;4072;42.668;23.396;2023-07-28T10:39:26;4.28;;;3.17;;
8058;SDS011;4072;42.668;23.396;2023-07-28T10:42:05;5.50;;;2.72;;
8058;SDS011;4072;42.668;23.396;2023-07-28T10:44:38;3.42;;;2.95;;
8058;SDS011;4072;42.668;23.396;2023-07-28T10:47:07;4.43;;;3.17;;
8058;SDS011;4072;42.668;23.396;2023-07-28T10:49:36;3.22;;;2.75;;
8058;SDS011;4072;42.668;23.396;2023-07-28T10:52:04;4.88;;;2.85;;
8058;SDS011;4072;42.668;23.396;2023-07-28T10:54:35;8.75;;;3.30;;
8058;SDS011;4072;42.668;23.396;2023-07-28T10:57:03;7.78;;;3.15;;
8058;SDS011;4072;42.668;23.396;2023-07-28T10:59:32;4.20;;;2.70;;
8058;SDS011;4072;42.668;23.396;2023-07-28T11:02:03;6.13;;;2.83;;
8058;SDS011;4072;42.668;23.396;2023-07-28T11:04:32;7.82;;;3.35;;
8058;SDS011;4072;42.668;23.396;2023-07-28T11:07:00;3.55;;;3.00;;
8058;SDS011;4072;42.668;23.396;2023-07-28T11:09:29;3.90;;;3.55;;
8058;SDS011;4072;42.668;23.396;2023-07-28T11:11:57;2.83;;;2.55;;
8058;SDS011;4072;42.668;23.396;2023-07-28T11:14:27;3.20;;;2.55;;
8058;SDS011;4072;42.668;23.396;2023-07-28T11:16:56;5.55;;;3.03;;
8058;SDS011;4072;42.668;23.396;2023-07-28T11:19:26;4.65;;;2.83;;
8058;SDS011;4072;42.668;23.396;2023-07-28T11:21:54;4.90;;;2.90;;
8058;SDS011;4072;42.668;23.396;2023-07-28T11:24:25;8.82;;;2.95;;
8058;SDS011;4072;42.668;23.396;2023-07-28T11:26:54;6.85;;;2.90;;
8058;SDS011;4072;42.668;23.396;2023-07-28T11:29:26;3.58;;;3.08;;
8058;SDS011;4072;42.668;23.396;2023-07-28T11:31:55;8.70;;;5.85;;
8058;SDS011;4072;42.668;23.396;2023-07-28T11:34:23;3.83;;;3.25;;
8058;SDS011;4072;42.668;23.396;2023-07-28T11:36:53;3.60;;;2.80;;
8058;SDS011;4072;42.668;23.396;2023-07-28T11:39:23;10.63;;;3.45;;
8058;SDS011;4072;42.668;23.396;2023-07-28T11:41:54;4.10;;;3.17;;
8058;SDS011;4072;42.668;23.396;2023-07-28T11:44:23;4.22;;;2.85;;
8058;SDS011;4072;42.668;23.396;2023-07-28T11:46:51;2.58;;;2.38;;
8058;SDS011;4072;42.668;23.396;2023-07-28T11:49:22;3.97;;;2.58;;
8058;SDS011;4072;42.668;23.396;2023-07-28T11:51:53;3.00;;;2.70;;
8058;SDS011;4072;42.668;23.396;2023-07-28T11:54:26;6.35;;;3.03;;
8058;SDS011;4072;42.668;23.396;2023-07-28T11:56:54;4.07;;;2.90;;
8058;SDS011;4072;42.668;23.396;2023-07-28T11:59:24;5.10;;;2.40;;
8058;SDS011;4072;42.668;23.396;2023-07-28T12:01:55;4.80;;;3.03;;
8058;SDS011;4072;42.668;23.396;2023-07-28T12:04:27;3.42;;;2.60;;
8058;SDS011;4072;42.668;23.396;2023-07-28T12:07:15;4.30;;;2.40;;
8058;SDS011;4072;42.668;23.396;2023-07-28T12:09:48;4.57;;;2.78;;
8058;SDS011;4072;42.668;23.396;2023-07-28T12:12:21;3.08;;;2.78;;
8058;SDS011;4072;42.668;23.396;2023-07-28T12:14:51;3.60;;;2.88;;
8058;SDS011;4072;42.668;23.396;2023-07-28T12:17:23;4.05;;;3.22;;
8058;SDS011;4072;42.668;23.396;2023-07-28T12:20:15;2.55;;;2.35;;
8058;SDS011;4072;42.668;23.396;2023-07-28T12:22:45;6.07;;;2.53;;
8058;SDS011;4072;42.668;23.396;2023-07-28T12:25:16;2.83;;;2.63;;
8058;SDS011;4072;42.668;23.396;2023-07-28T12:27:47;5.45;;;3.25;;
8058;SDS011;4072;42.668;23.396;2023-07-28T12:30:15;4.68;;;3.08;;
8058;SDS011;4072;42.668;23.396;2023-07-28T12:32:44;3.65;;;2.40;;
8058;SDS011;4072;42.668;23.396;2023-07-28T12:35:17;3.10;;;2.80;;
8058;SDS011;4072;42.668;23.396;2023-07-28T12:37:47;2.85;;;2.65;;
8058;SDS011;4072;42.668;23.396;2023-07-28T12:40:20;6.20;;;2.72;;
8058;SDS011;4072;42.668;23.396;2023-07-28T12:42:53;4.55;;;3.15;;
8058;SDS011;4072;42.668;23.396;2023-07-28T12:45:25;5.00;;;3.15;;
8058;SDS011;4072;42.668;23.396;2023-07-28T12:47:54;5.15;;;3.05;;
8058;SDS011;4072;42.668;23.396;2023-07-28T12:50:25;3.67;;;3.03;;
8058;SDS011;4072;42.668;23.396;2023-07-28T12:52:55;6.10;;;2.55;;
8058;SDS011;4072;42.668;23.396;2023-07-28T12:55:26;4.28;;;3.15;;
8058;SDS011;4072;42.668;23.396;2023-07-28T12:57:55;5.57;;;3.15;;
8058;SDS011;4072;42.668;23.396;2023-07-28T13:00:26;4.05;;;2.88;;
8058;SDS011;4072;42.668;23.396;2023-07-28T13:02:57;4.30;;;2.20;;
8058;SDS011;4072;42.668;23.396;2023-07-28T13:05:26;2.70;;;2.50;;
8058;SDS011;4072;42.668;23.396;2023-07-28T13:07:56;2.80;;;2.55;;
8058;SDS011;4072;42.668;23.396;2023-07-28T13:10:27;2.75;;;2.45;;
8058;SDS011;4072;42.668;23.396;2023-07-28T13:12:58;4.95;;;2.30;;
8058;SDS011;4072;42.668;23.396;2023-07-28T13:15:29;4.45;;;2.53;;
8058;SDS011;4072;42.668;23.396;2023-07-28T13:17:58;2.53;;;2.30;;
8058;SDS011;4072;42.668;23.396;2023-07-28T13:20:28;8.27;;;4.15;;
8058;SDS011;4072;42.668;23.396;2023-07-28T13:22:57;2.30;;;2.15;;
8058;SDS011;4072;42.668;23.396;2023-07-28T13:25:26;3.10;;;2.38;;
8058;SDS011;4072;42.668;23.396;2023-07-28T13:27:54;4.35;;;3.30;;
8058;SDS011;4072;42.668;23.396;2023-07-28T13:30:24;6.70;;;2.60;;
8058;SDS011;4072;42.668;23.396;2023-07-28T13:32:55;2.80;;;2.58;;
8058;SDS011;4072;42.668;23.396;2023-07-28T13:35:24;3.45;;;2.30;;
8058;SDS011;4072;42.668;23.396;2023-07-28T13:37:53;2.30;;;2.08;;
8058;SDS011;4072;42.668;23.396;2023-07-28T13:40:23;4.30;;;3.90;;
8058;SDS011;4072;42.668;23.396;2023-07-28T13:42:54;2.85;;;2.53;;
8058;SDS011;4072;42.668;23.396;2023-07-28T13:45:22;7.07;;;3.15;;
8058;SDS011;4072;42.668;23.396;2023-07-28T13:47:51;2.63;;;2.40;;
8058;SDS011;4072;42.668;23.396;2023-07-28T13:50:19;2.92;;;2.13;;
8058;SDS011;4072;42.668;23.396;2023-07-28T13:53:03;3.00;;;2.70;;
8058;SDS011;4072;42.668;23.396;2023-07-28T13:55:36;3.28;;;2.20;;
8058;SDS011;4072;42.668;23.396;2023-07-28T13:58:07;2.65;;;2.45;;
8058;SDS011;4072;42.668;23.396;2023-07-28T14:00:36;2.75;;;2.47;;
8058;SDS011;4072;42.668;23.396;2023-07-28T14:03:06;2.63;;;2.42;;
8058;SDS011;4072;42.668;23.396;2023-07-28T14:05:35;3.13;;;2.10;;
8058;SDS011;4072;42.668;23.396;2023-07-28T14:08:03;2.38;;;2.17;;
8058;SDS011;4072;42.668;23.396;2023-07-28T14:10:32;2.50;;;2.30;;
8058;SDS011;4072;42.668;23.396;2023-07-28T14:13:02;3.45;;;2.60;;
8058;SDS011;4072;42.668;23.396;2023-07-28T14:15:31;2.72;;;2.53;;
8058;SDS011;4072;42.668;23.396;2023-07-28T14:18:00;2.70;;;2.50;;
8058;SDS011;4072;42.668;23.396;2023-07-28T14:20:29;2.35;;;2.15;;
8058;SDS011;4072;42.668;23.396;2023-07-28T14:22:59;5.32;;;2.97;;
8058;SDS011;4072;42.668;23.396;2023-07-28T14:25:28;2.80;;;2.15;;
8058;SDS011;4072;42.668;23.396;2023-07-28T14:27:57;2.53;;;2.25;;
8058;SDS011;4072;42.668;23.396;2023-07-28T14:30:27;2.90;;;2.45;;
8058;SDS011;4072;42.668;23.396;2023-07-28T14:32:56;2.03;;;1.92;;
8058;SDS011;4072;42.668;23.396;2023-07-28T14:35:26;2.20;;;2.10;;
8058;SDS011;4072;42.668;23.396;2023-07-28T14:37:56;2.63;;;2.40;;
8058;SDS011;4072;42.668;23.396;2023-07-28T14:40:24;4.38;;;1.92;;
8058;SDS011;4072;42.668;23.396;2023-07-28T14:42:53;3.17;;;2.25;;
8058;SDS011;4072;42.668;23.396;2023-07-28T14:45:21;2.28;;;2.08;;
8058;SDS011;4072;42.668;23.396;2023-07-28T14:47:51;2.75;;;2.17;;
8058;SDS011;4072;42.668;23.396;2023-07-28T14:50:20;2.70;;;2.50;;
8058;SDS011;4072;42.668;23.396;2023-07-28T14:52:48;2.47;;;2.28;;
8058;SDS011;4072;42.668;23.396;2023-07-28T14:55:19;2.50;;;2.30;;
8058;SDS011;4072;42.668;23.396;2023-07-28T14:57:48;2.78;;;2.58;;
8058;SDS011;4072;42.668;23.396;2023-07-28T15:00:19;2.75;;;2.55;;
8058;SDS011;4072;42.668;23.396;2023-07-28T15:02:47;3.38;;;3.08;;
8058;SDS011;4072;42.668;23.396;2023-07-28T15:05:17;2.47;;;2.28;;
8058;SDS011;4072;42.668;23.396;2023-07-28T15:07:46;4.28;;;2.67;;
8058;SDS011;4072;42.668;23.396;2023-07-28T15:10:15;3.47;;;1.90;;
8058;SDS011;4072;42.668;23.396;2023-07-28T15:12:44;2.78;;;2.58;;
8058;SDS011;4072;42.668;23.396;2023-07-28T15:15:12;3.00;;;2.80;;
8058;SDS011;4072;42.668;23.396;2023-07-28T15:17:41;2.63;;;2.42;;